Monday, June 25, 2018, 3:19 PM EDT
Back to Local

KMTP, Montauk Airport

Location: Montauk, NY, United States Lat: 41.067
Local Time: 3:19 PM EDT (19:19 GMT) Lon: -71.917
Time Zone: US/Eastern Elev: 6 ft

Show me the last for .
Show Decoded

2018-06-25 14:54 METAR KMTP 251854Z AUTO 34007KT 24/12 A3001 RMK AO1 SLP160 T02440117 =
2018-06-25 13:54 METAR KMTP 251754Z AUTO 33009KT 24/13 A2999 RMK AO1 SLP155 T02390133 10239 20194
                 53016 =
2018-06-25 12:54 METAR KMTP 251654Z AUTO 34009KT 23/15 A2997 RMK AO1 SLP148 T02280150 =
2018-06-25 11:54 METAR KMTP 251554Z AUTO 33009KT 22/17 A2995 RMK AO1 SLP141 T02170167 =
2018-06-25 10:54 METAR KMTP 251454Z AUTO 31010KT 22/17 A2994 RMK AO1 SLP139 T02170167 52019 =
2018-06-25 09:54 METAR KMTP 251354Z AUTO 32006KT 20/17 A2992 RMK AO1 SLP133 T02000167 =
2018-06-25 08:54 METAR KMTP 251254Z AUTO 32007KT 20/17 A2990 RMK AO1 SLP126 T02000172 =
2018-06-25 07:54 METAR KMTP 251154Z AUTO 32005KT 19/17 A2989 RMK AO1 SLP120 70022 T01940172 10194
                 20178 53029 =
2018-06-25 06:54 METAR KMTP 251054Z AUTO 32006KT 18/18 A2986 RMK AO1 SLP111 T01830178 =
2018-06-25 05:54 METAR KMTP 250954Z AUTO 32003KT 18/18 A2982 RMK AO1 SLP098 T01830183 =
2018-06-25 04:54 METAR KMTP 250854Z AUTO 29007KT 18/18 A2980 RMK AO1 SLP091 T01830183 51010 =
2018-06-25 03:54 METAR KMTP 250754Z AUTO 29007KT 18/18 A2979 RMK AO1 SLP087 T01780178 =
2018-06-25 02:54 METAR KMTP 250654Z AUTO 31007KT 18/18 A2979 RMK AO1 SLP086 T01780178 =
2018-06-25 01:54 METAR KMTP 250554Z AUTO 32006KT 19/19 A2977 RMK AO1 SLP081 60022 T01940194 10211
                 20189 58012 =
2018-06-25 00:54 METAR KMTP 250454Z AUTO 00000KT 20/19 A2978 RMK AO1 SLP083 T02000194 402110161 =
2018-06-24 23:54 METAR KMTP 250354Z AUTO 22006KT 20/20 A2980 RMK AO1 SLP092 P0005 T02000200 =
2018-06-24 22:54 METAR KMTP 250254Z AUTO 00000KT 19/19 A2981 RMK AO1 SLP092 P0010 60017 T01940194
                 58001 =
2018-06-24 21:54 METAR KMTP 250154Z AUTO 16004KT 19/19 A2982 RMK AO1 SLP097 P0007 T01940194 =
2018-06-24 20:54 METAR KMTP 250054Z AUTO 00000KT 19/19 A2983 RMK AO1 SLP100 T01940194 =
2018-06-24 19:54 METAR KMTP 242354Z AUTO VRB03KT 19/19 A2981 RMK AO1 SLP093 T01890189 10211 20189
                 58003 =
2018-06-24 18:54 METAR KMTP 242254Z AUTO 20005KT 19/18 A2982 RMK AO1 SLP097 T01890183 =
2018-06-24 17:54 METAR KMTP 242154Z AUTO 21006KT 19/19 A2982 RMK AO1 SLP096 T01940189 =
2018-06-24 16:54 METAR KMTP 242054Z AUTO VRB05KT 21/20 A2982 RMK AO1 SLP096 T02060200 58013 =
2018-06-24 15:54 METAR KMTP 241954Z AUTO VRB05KT 21/19 A2983 RMK AO1 SLP101 T02060194 =

Support USWX by starting your Amazon purchase here.